Time;durP1;ratioP1;P1;durP2;ratioP2;P2;SDS_P1;SDS_P2;PMS_P1;PMS_P2;Temp;Humidity;BMP_temperature;BMP_pressure;BME280_temperature;BME280_humidity;BME280_pressure;Samples;Min_cycle;Max_cycle;Signal;HPM_P1;HPM_P2
2023/06/22 00:00:53;;;;;;;7.22;2.55;;;22.90;61.10;;;;;;5071103;28;20039;-64
2023/06/22 00:03:20;;;;;;;6.88;2.63;;;22.80;61.00;;;;;;5073069;28;20031;-64
2023/06/22 00:05:47;;;;;;;5.60;2.30;;;22.80;61.00;;;;;;5075188;28;20103;-64
2023/06/22 00:08:13;;;;;;;6.55;2.80;;;22.80;60.80;;;;;;5071362;28;20039;-64
2023/06/22 00:10:39;;;;;;;5.20;2.40;;;22.80;60.70;;;;;;5077469;28;20031;-64
2023/06/22 00:13:06;;;;;;;6.55;2.97;;;22.80;60.60;;;;;;5075988;28;20017;-64
2023/06/22 00:15:32;;;;;;;7.63;2.60;;;22.80;60.50;;;;;;5063657;28;20085;-64
2023/06/22 00:17:59;;;;;;;4.95;2.65;;;22.80;60.40;;;;;;5059875;28;20456;-65
2023/06/22 00:20:28;;;;;;;5.60;2.63;;;22.80;60.20;;;;;;5077332;28;20051;-64
2023/06/22 00:22:55;;;;;;;7.97;2.75;;;22.80;60.10;;;;;;5059926;28;20406;-64
2023/06/22 00:25:21;;;;;;;6.53;2.67;;;22.80;60.00;;;;;;5076716;28;20082;-64
2023/06/22 00:27:47;;;;;;;7.00;2.50;;;22.80;60.00;;;;;;5073248;28;20032;-64
2023/06/22 00:30:14;;;;;;;7.68;3.38;;;22.70;60.10;;;;;;5059325;28;20077;-64
2023/06/22 00:32:39;;;;;;;8.38;2.80;;;22.70;60.10;;;;;;5045688;28;20016;-64
2023/06/22 00:35:07;;;;;;;7.20;2.50;;;22.70;60.30;;;;;;5058510;28;20036;-64
2023/06/22 00:37:33;;;;;;;6.93;2.80;;;22.70;60.50;;;;;;5042221;28;20032;-64
2023/06/22 00:39:59;;;;;;;7.70;3.20;;;22.60;60.70;;;;;;5057255;28;20028;-64
2023/06/22 00:42:24;;;;;;;5.78;2.83;;;22.60;60.70;;;;;;5058619;28;20086;-64
2023/06/22 00:44:50;;;;;;;6.93;3.15;;;22.60;60.80;;;;;;5057416;28;20024;-64
2023/06/22 00:47:18;;;;;;;5.55;2.70;;;22.60;61.00;;;;;;5056398;28;20052;-64
2023/06/22 00:49:44;;;;;;;9.75;3.35;;;22.60;61.20;;;;;;5054683;28;20060;-64
2023/06/22 00:52:13;;;;;;;7.60;3.25;;;22.60;61.10;;;;;;5075917;28;20353;-64
2023/06/22 00:54:45;;;;;;;6.53;2.95;;;22.60;61.00;;;;;;5074741;28;20122;-64
2023/06/22 00:57:15;;;;;;;6.78;3.20;;;22.50;61.10;;;;;;5059265;28;20139;-64
2023/06/22 00:59:45;;;;;;;6.45;2.90;;;22.50;61.30;;;;;;5059009;28;20318;-64
2023/06/22 01:02:11;;;;;;;7.93;3.15;;;22.50;61.50;;;;;;5058987;28;20322;-64
2023/06/22 01:04:38;;;;;;;6.68;3.55;;;22.50;61.60;;;;;;5068761;28;20032;-64
2023/06/22 01:07:18;;;;;;;5.45;2.83;;;22.40;61.60;;;;;;5056698;28;20024;-64
2023/06/22 01:09:57;;;;;;;5.93;2.63;;;22.40;61.80;;;;;;5075676;28;20107;-64
2023/06/22 01:12:25;;;;;;;6.38;2.85;;;22.40;62.10;;;;;;5056945;28;20024;-64
2023/06/22 01:15:03;;;;;;;5.68;2.90;;;22.30;62.20;;;;;;5054916;28;20074;-64
2023/06/22 01:17:29;;;;;;;5.55;2.80;;;22.30;62.20;;;;;;5076307;28;20032;-64
2023/06/22 01:19:56;;;;;;;5.88;2.85;;;22.30;62.20;;;;;;5076221;28;20040;-64
2023/06/22 01:22:32;;;;;;;6.32;2.80;;;22.30;62.30;;;;;;5058405;28;20036;-64
2023/06/22 01:25:17;;;;;;;6.47;3.20;;;22.30;62.40;;;;;;5058452;28;20365;-64
2023/06/22 01:27:54;;;;;;;7.05;2.70;;;22.20;62.60;;;;;;5057313;28;20032;-64
2023/06/22 01:30:20;;;;;;;8.48;2.97;;;22.20;62.80;;;;;;5041551;28;20098;-64
2023/06/22 01:32:48;;;;;;;5.53;2.72;;;22.10;62.90;;;;;;5058406;28;20400;-64
2023/06/22 01:35:15;;;;;;;6.32;3.17;;;22.10;63.00;;;;;;5057470;28;20423;-64
2023/06/22 01:37:41;;;;;;;6.75;3.00;;;22.10;63.10;;;;;;5054831;28;20027;-64
2023/06/22 01:40:08;;;;;;;6.38;2.90;;;22.00;63.00;;;;;;5057512;28;20404;-64
2023/06/22 01:42:35;;;;;;;6.63;3.05;;;22.00;63.00;;;;;;5056588;28;20437;-64
2023/06/22 01:45:02;;;;;;;7.28;2.95;;;22.00;63.00;;;;;;5075715;28;20441;-64
2023/06/22 01:47:28;;;;;;;7.28;3.03;;;22.00;63.00;;;;;;5073321;28;20040;-64
2023/06/22 01:49:54;;;;;;;6.80;2.97;;;22.00;63.00;;;;;;5074650;28;20059;-64
2023/06/22 01:52:21;;;;;;;6.50;3.10;;;22.00;63.10;;;;;;5057000;28;20354;-64
2023/06/22 01:54:48;;;;;;;6.43;3.70;;;22.00;63.10;;;;;;5058200;28;20029;-64
2023/06/22 01:57:14;;;;;;;6.60;3.47;;;22.00;63.20;;;;;;5055900;28;20051;-64
2023/06/22 01:59:52;;;;;;;8.02;3.67;;;22.00;63.20;;;;;;5056490;28;20054;-63
2023/06/22 02:02:26;;;;;;;6.90;3.55;;;21.90;63.20;;;;;;5068514;28;20379;-64
2023/06/22 02:05:16;;;;;;;6.30;3.30;;;21.90;63.20;;;;;;5073954;28;20065;-63
2023/06/22 02:07:47;;;;;;;7.25;3.67;;;21.90;63.20;;;;;;5052671;28;20345;-64
2023/06/22 02:10:15;;;;;;;7.82;3.33;;;21.90;63.20;;;;;;5051443;28;20021;-64
2023/06/22 02:12:43;;;;;;;8.27;3.58;;;21.90;63.20;;;;;;5056903;28;20085;-64
2023/06/22 02:15:12;;;;;;;6.93;3.67;;;21.90;63.20;;;;;;5074026;28;20287;-64
2023/06/22 02:17:38;;;;;;;7.88;3.72;;;21.90;63.20;;;;;;5056761;28;20103;-64
2023/06/22 02:20:07;;;;;;;7.68;3.80;;;21.90;63.20;;;;;;5054535;28;20032;-64
2023/06/22 02:22:33;;;;;;;9.32;4.22;;;21.90;63.10;;;;;;5056109;28;20040;-64
2023/06/22 02:24:59;;;;;;;9.68;3.90;;;21.90;63.00;;;;;;5056309;28;20029;-64
2023/06/22 02:27:24;;;;;;;8.38;4.18;;;21.90;63.10;;;;;;5054624;28;20032;-64
2023/06/22 02:29:50;;;;;;;7.65;4.03;;;21.90;63.10;;;;;;5057379;28;20119;-64
2023/06/22 02:32:17;;;;;;;8.68;4.22;;;21.90;63.20;;;;;;5056278;28;20028;-64
2023/06/22 02:34:47;;;;;;;8.32;4.22;;;21.90;63.30;;;;;;5055304;28;20036;-64
2023/06/22 02:37:15;;;;;;;7.95;4.13;;;21.90;63.40;;;;;;5073032;28;20025;-64
2023/06/22 02:39:41;;;;;;;8.43;4.35;;;21.80;63.40;;;;;;5039635;28;20029;-63
2023/06/22 02:42:07;;;;;;;7.70;3.97;;;21.80;63.50;;;;;;5055577;28;20471;-64
2023/06/22 02:44:33;;;;;;;8.05;4.22;;;21.80;63.60;;;;;;5070941;28;20377;-64
2023/06/22 02:46:59;;;;;;;8.88;4.10;;;21.80;63.80;;;;;;5071851;28;20084;-64
2023/06/22 02:49:25;;;;;;;8.07;4.38;;;21.70;63.80;;;;;;5057309;28;20025;-64
2023/06/22 02:51:51;;;;;;;8.13;4.55;;;21.70;64.00;;;;;;5056499;28;20070;-63
2023/06/22 02:54:19;;;;;;;7.97;4.75;;;21.70;64.10;;;;;;5037273;28;20079;-63
2023/06/22 02:56:48;;;;;;;9.23;4.93;;;21.70;64.20;;;;;;5053004;28;20414;-64
2023/06/22 02:59:13;;;;;;;8.60;4.85;;;21.70;64.30;;;;;;5036954;28;20107;-64
2023/06/22 03:01:40;;;;;;;9.13;5.20;;;21.70;64.40;;;;;;5037603;28;20505;-64
2023/06/22 03:04:13;;;;;;;9.07;5.15;;;21.70;64.50;;;;;;5053281;28;20044;-63
2023/06/22 03:06:40;;;;;;;9.27;5.20;;;21.70;64.60;;;;;;5038343;28;20445;-63
2023/06/22 03:09:06;;;;;;;9.68;5.18;;;21.70;64.70;;;;;;5056564;28;20366;-64
2023/06/22 03:11:34;;;;;;;7.82;5.15;;;21.60;64.70;;;;;;5056065;28;20361;-63
2023/06/22 03:14:02;;;;;;;9.18;5.80;;;21.70;65.00;;;;;;5054779;28;20024;-63
2023/06/22 03:16:29;;;;;;;8.98;5.22;;;21.70;65.10;;;;;;5052681;28;20119;-64
2023/06/22 03:18:56;;;;;;;9.80;6.30;;;21.60;65.10;;;;;;5056341;28;20442;-64
2023/06/22 03:21:23;;;;;;;10.90;6.90;;;21.60;65.30;;;;;;5056052;28;20033;-64
2023/06/22 03:23:49;;;;;;;11.95;7.20;;;21.60;66.10;;;;;;5073873;28;20028;-64
2023/06/22 03:26:19;;;;;;;10.45;7.40;;;21.60;65.60;;;;;;5055691;28;20048;-64
2023/06/22 03:28:45;;;;;;;12.05;7.90;;;21.60;65.70;;;;;;5071524;28;20028;-63
2023/06/22 03:31:11;;;;;;;12.35;7.88;;;21.60;65.80;;;;;;5038991;28;20025;-64
2023/06/22 03:33:39;;;;;;;11.73;7.93;;;21.60;66.50;;;;;;5032059;28;20111;-63
2023/06/22 03:36:05;;;;;;;12.13;8.27;;;21.60;65.90;;;;;;5053624;28;20109;-64
2023/06/22 03:38:31;;;;;;;10.70;7.82;;;21.60;66.00;;;;;;5069434;28;20028;-64
2023/06/22 03:40:57;;;;;;;11.50;8.32;;;21.70;66.20;;;;;;5052704;28;20040;-64
2023/06/22 03:43:23;;;;;;;14.30;8.95;;;21.60;66.20;;;;;;5055955;28;20360;-64
2023/06/22 03:45:49;;;;;;;12.93;8.07;;;21.60;66.30;;;;;;5053999;28;20028;-64
2023/06/22 03:48:15;;;;;;;14.15;8.57;;;21.60;66.50;;;;;;5055057;28;20040;-64
2023/06/22 03:50:43;;;;;;;14.27;9.02;;;21.70;66.70;;;;;;5033745;28;20040;-64
2023/06/22 03:53:10;;;;;;;11.98;9.13;;;21.60;66.70;;;;;;5071797;28;20156;-64
2023/06/22 03:55:36;;;;;;;12.18;8.70;;;21.60;66.80;;;;;;5071762;28;20082;-64
2023/06/22 03:58:05;;;;;;;12.90;8.88;;;21.60;66.90;;;;;;5064446;28;20516;-63
2023/06/22 04:00:32;;;;;;;12.30;9.25;;;21.60;66.90;;;;;;5070725;28;20021;-64
2023/06/22 04:02:57;;;;;;;13.45;10.15;;;21.60;67.00;;;;;;5070958;28;20032;-64
2023/06/22 04:05:24;;;;;;;11.70;9.15;;;21.60;67.10;;;;;;5073284;28;20104;-64
2023/06/22 04:07:50;;;;;;;14.10;9.65;;;21.60;67.10;;;;;;5034134;28;20029;-63
2023/06/22 04:10:15;;;;;;;12.32;9.60;;;21.60;67.20;;;;;;5054437;28;20094;-63
2023/06/22 04:12:41;;;;;;;15.88;11.20;;;21.60;67.20;;;;;;5071429;28;20024;-63
2023/06/22 04:15:07;;;;;;;14.27;10.13;;;21.60;67.20;;;;;;5072069;28;20029;-67
2023/06/22 04:17:33;;;;;;;15.05;10.65;;;21.60;67.30;;;;;;5071262;28;20024;-63
2023/06/22 04:19:59;;;;;;;14.10;11.02;;;21.60;67.50;;;;;;5053842;28;20330;-63
2023/06/22 04:22:24;;;;;;;13.77;11.15;;;21.60;67.60;;;;;;5065618;28;20029;-64
2023/06/22 04:24:51;;;;;;;15.13;12.13;;;21.60;67.50;;;;;;5070233;28;20039;-64
2023/06/22 04:27:18;;;;;;;15.18;11.45;;;21.70;67.60;;;;;;5053684;28;20028;-64
2023/06/22 04:29:48;;;;;;;16.25;12.23;;;21.60;67.50;;;;;;5072431;28;20153;-64
2023/06/22 04:32:17;;;;;;;15.93;11.10;;;21.70;67.50;;;;;;5054662;28;20070;-64
2023/06/22 04:34:44;;;;;;;16.27;12.10;;;21.70;67.60;;;;;;5070000;28;20075;-64
2023/06/22 04:37:15;;;;;;;16.10;11.68;;;21.70;67.60;;;;;;5072153;28;20040;-64
2023/06/22 04:39:41;;;;;;;;;;;21.80;67.60;;;;;;5072473;28;20052;-64
2023/06/22 04:42:07;;;;;;;14.50;11.52;;;21.80;67.50;;;;;;5038025;28;19916;-64
2023/06/22 04:44:33;;;;;;;16.75;12.27;;;21.80;67.40;;;;;;5072366;28;20358;-64
2023/06/22 04:47:03;;;;;;;15.80;11.95;;;21.80;67.40;;;;;;5070272;28;20385;-64
2023/06/22 04:49:32;;;;;;;14.43;11.85;;;21.80;67.40;;;;;;5054790;28;20472;-64
2023/06/22 04:52:03;;;;;;;16.25;13.07;;;21.80;67.40;;;;;;5076796;28;20021;-64
2023/06/22 04:54:29;;;;;;;17.60;12.93;;;21.90;67.50;;;;;;5075195;28;20438;-64
2023/06/22 04:56:57;;;;;;;16.10;12.88;;;21.90;67.50;;;;;;5074931;28;20020;-64
2023/06/22 04:59:28;;;;;;;15.52;11.77;;;21.90;67.60;;;;;;5076523;28;20047;-64
2023/06/22 05:01:58;;;;;;;15.60;12.85;;;21.90;67.60;;;;;;5063288;28;20039;-63
2023/06/22 05:04:25;;;;;;;16.65;12.07;;;21.90;67.70;;;;;;5076070;28;20127;-64
2023/06/22 05:06:53;;;;;;;16.23;12.38;;;22.00;67.80;;;;;;5073848;28;20066;-64
2023/06/22 05:09:19;;;;;;;16.40;12.82;;;22.00;67.80;;;;;;5073776;28;20028;-64
2023/06/22 05:11:45;;;;;;;18.88;12.48;;;22.10;67.70;;;;;;5057953;28;20120;-64
2023/06/22 05:14:11;;;;;;;14.98;11.60;;;22.10;67.60;;;;;;5075568;28;20036;-64
2023/06/22 05:16:37;;;;;;;15.75;11.93;;;22.20;67.50;;;;;;5075444;28;20123;-63
2023/06/22 05:19:03;;;;;;;15.27;11.93;;;22.30;67.30;;;;;;5057294;28;20044;-63
2023/06/22 05:21:30;;;;;;;16.33;12.70;;;22.40;67.20;;;;;;5056324;28;20093;-63
2023/06/22 05:23:59;;;;;;;15.40;11.82;;;22.40;66.90;;;;;;5057520;28;20029;-63
2023/06/22 05:26:26;;;;;;;15.52;11.35;;;22.50;66.80;;;;;;5074017;28;20032;-63
2023/06/22 05:28:52;;;;;;;15.82;11.73;;;22.50;66.60;;;;;;5056234;28;20492;-63
2023/06/22 05:31:22;;;;;;;13.25;10.45;;;22.60;66.40;;;;;;5074244;28;20077;-63
2023/06/22 05:33:49;;;;;;;15.20;11.43;;;22.70;66.40;;;;;;5073393;28;20024;-63
2023/06/22 05:36:15;;;;;;;13.35;9.98;;;22.80;66.80;;;;;;5057378;28;20103;-63
2023/06/22 05:38:41;;;;;;;14.68;11.82;;;22.80;66.20;;;;;;5074426;28;20107;-63
2023/06/22 05:41:08;;;;;;;14.38;10.60;;;22.90;66.10;;;;;;5041237;28;20580;-63
2023/06/22 05:43:34;;;;;;;14.25;10.27;;;22.90;65.80;;;;;;5073057;28;20024;-63
2023/06/22 05:46:01;;;;;;;14.52;11.27;;;23.00;65.40;;;;;;5075484;28;20036;-63
2023/06/22 05:48:27;;;;;;;13.40;10.07;;;23.10;65.20;;;;;;5053350;28;20139;-63
2023/06/22 05:50:54;;;;;;;14.73;9.48;;;23.10;65.10;;;;;;5054381;28;20021;-63
2023/06/22 05:53:20;;;;;;;14.80;8.93;;;23.20;65.00;;;;;;5054722;28;20037;-63
2023/06/22 05:55:46;;;;;;;12.63;9.27;;;23.30;64.80;;;;;;5052443;28;20017;-64
2023/06/22 05:58:13;;;;;;;13.13;9.10;;;23.40;64.60;;;;;;5055107;28;20029;-63
2023/06/22 06:00:39;;;;;;;12.57;9.50;;;23.50;64.30;;;;;;5052177;28;20117;-63
2023/06/22 06:03:06;;;;;;;11.27;8.13;;;23.60;64.10;;;;;;5034876;28;20021;-63
2023/06/22 06:05:33;;;;;;;12.40;8.93;;;23.60;64.60;;;;;;5052528;28;20160;-63
2023/06/22 06:08:00;;;;;;;12.10;8.65;;;23.70;63.90;;;;;;5053388;28;20131;-63
2023/06/22 06:10:27;;;;;;;12.40;8.93;;;23.80;63.70;;;;;;5054375;28;20029;-63
2023/06/22 06:12:53;;;;;;;11.82;8.77;;;23.90;63.40;;;;;;5054348;28;20377;-63
2023/06/22 06:15:19;;;;;;;12.88;9.43;;;24.00;63.30;;;;;;5053200;28;20128;-64
2023/06/22 06:17:52;;;;;;;14.80;8.70;;;24.00;63.10;;;;;;5055468;28;20434;-63
2023/06/22 06:20:23;;;;;;;11.02;8.40;;;24.10;63.00;;;;;;5043452;28;20040;-63
2023/06/22 06:22:49;;;;;;;13.80;9.80;;;24.20;62.70;;;;;;5055213;28;20036;-63
2023/06/22 06:25:18;;;;;;;12.80;9.45;;;24.30;62.40;;;;;;5053912;28;20342;-64
2023/06/22 06:27:45;;;;;;;12.95;9.45;;;24.30;62.00;;;;;;5054389;28;20427;-63
2023/06/22 06:30:12;;;;;;;13.43;9.23;;;24.50;61.70;;;;;;5053108;28;20104;-63
2023/06/22 06:32:39;;;;;;;13.93;9.52;;;24.50;61.50;;;;;;5049072;28;20036;-63
2023/06/22 06:35:09;;;;;;;13.02;9.05;;;24.60;61.50;;;;;;5050843;28;20057;-63
2023/06/22 06:37:39;;;;;;;11.75;8.65;;;24.60;61.30;;;;;;5053481;28;20056;-63
2023/06/22 06:40:10;;;;;;;12.82;9.00;;;24.80;61.30;;;;;;5051589;28;20300;-63
2023/06/22 06:42:41;;;;;;;11.60;8.15;;;24.90;61.00;;;;;;5053794;28;20054;-63
2023/06/22 06:45:28;;;;;;;11.88;8.75;;;25.10;60.80;;;;;;5052782;28;20483;-63
2023/06/22 06:47:54;;;;;;;11.48;8.15;;;25.20;60.10;;;;;;5065701;28;20044;-64
2023/06/22 06:50:20;;;;;;;10.95;8.27;;;25.30;59.90;;;;;;5073922;28;20090;-64
2023/06/22 06:52:46;;;;;;;11.18;8.30;;;25.40;59.70;;;;;;5071757;28;20021;-64
2023/06/22 06:55:11;;;;;;;12.30;8.15;;;25.50;59.60;;;;;;5074119;28;20409;-64
2023/06/22 06:57:41;;;;;;;11.32;7.80;;;25.50;59.60;;;;;;5055883;28;20033;-64
2023/06/22 07:00:15;;;;;;;12.45;8.32;;;25.50;59.30;;;;;;5071188;28;20461;-64
2023/06/22 07:02:45;;;;;;;11.27;7.88;;;25.60;59.20;;;;;;5056378;28;20028;-64
2023/06/22 07:05:11;;;;;;;11.03;7.73;;;25.70;59.00;;;;;;5074064;28;20040;-64
2023/06/22 07:07:38;;;;;;;10.07;7.25;;;25.80;58.80;;;;;;5073590;28;20036;-64
2023/06/22 07:10:06;;;;;;;13.55;7.97;;;25.80;58.70;;;;;;5054370;28;20043;-64
2023/06/22 07:12:31;;;;;;;11.90;8.32;;;25.80;58.60;;;;;;5073643;28;20082;-64
2023/06/22 07:15:05;;;;;;;12.32;8.90;;;25.70;58.60;;;;;;5055646;28;20433;-64
2023/06/22 07:17:31;;;;;;;11.68;7.85;;;25.70;58.80;;;;;;5055705;28;20024;-64
2023/06/22 07:19:57;;;;;;;11.02;7.10;;;25.60;58.80;;;;;;5072150;28;20453;-64
2023/06/22 07:22:23;;;;;;;11.32;7.45;;;25.50;58.70;;;;;;5074264;28;20099;-64
2023/06/22 07:24:49;;;;;;;11.43;7.40;;;25.60;58.90;;;;;;5073700;28;20394;-64
2023/06/22 07:27:18;;;;;;;10.32;7.25;;;25.70;58.90;;;;;;5073056;28;20472;-64
2023/06/22 07:29:44;;;;;;;10.23;6.97;;;25.90;58.70;;;;;;5071934;28;20033;-64
2023/06/22 07:32:10;;;;;;;9.43;7.00;;;25.90;58.50;;;;;;5073299;28;20032;-63
2023/06/22 07:34:36;;;;;;;11.35;6.97;;;26.00;58.30;;;;;;5073522;28;20357;-64
2023/06/22 07:37:03;;;;;;;11.07;7.15;;;26.00;58.20;;;;;;5073611;28;20033;-64
2023/06/22 07:39:28;;;;;;;11.00;7.35;;;26.00;58.20;;;;;;5072402;28;20040;-64
2023/06/22 07:41:54;;;;;;;10.07;6.32;;;25.90;58.30;;;;;;5071329;28;20349;-64
2023/06/22 07:44:20;;;;;;;10.13;6.63;;;25.90;58.30;;;;;;5074188;28;20024;-65
2023/06/22 07:46:46;;;;;;;9.57;6.22;;;26.00;58.30;;;;;;5055630;28;20048;-64
2023/06/22 07:49:12;;;;;;;10.95;6.50;;;25.90;58.30;;;;;;5039445;28;20368;-64
2023/06/22 07:51:37;;;;;;;9.60;6.65;;;25.90;58.30;;;;;;5047598;28;20033;-64
2023/06/22 07:54:03;;;;;;;9.93;6.45;;;25.90;58.50;;;;;;5072088;28;20472;-64
2023/06/22 07:56:29;;;;;;;9.32;6.03;;;25.90;58.40;;;;;;5073081;28;20025;-64
2023/06/22 07:58:58;;;;;;;9.75;5.95;;;25.90;58.30;;;;;;5072050;28;20034;-64
2023/06/22 08:01:24;;;;;;;8.88;6.22;;;25.90;58.30;;;;;;5053183;28;20033;-63
2023/06/22 08:03:51;;;;;;;8.93;5.63;;;26.00;58.20;;;;;;5056285;28;20326;-64
2023/06/22 08:06:16;;;;;;;8.15;5.75;;;26.00;58.30;;;;;;5063990;28;20029;-64
2023/06/22 08:08:42;;;;;;;9.82;6.22;;;25.90;58.10;;;;;;5073916;28;20303;-64
2023/06/22 08:11:09;;;;;;;9.15;5.90;;;25.90;58.00;;;;;;5055184;28;20412;-64
2023/06/22 08:13:35;;;;;;;9.60;5.60;;;25.80;57.90;;;;;;5073569;28;20032;-64
2023/06/22 08:16:01;;;;;;;9.40;5.32;;;25.80;58.00;;;;;;5073946;28;20074;-64
2023/06/22 08:18:28;;;;;;;8.95;4.95;;;25.80;58.30;;;;;;5073933;28;20107;-64
2023/06/22 08:20:54;;;;;;;8.80;5.47;;;25.80;58.40;;;;;;5074088;28;20090;-64
2023/06/22 08:23:20;;;;;;;8.18;5.28;;;25.80;58.30;;;;;;5054343;28;20056;-62
2023/06/22 08:25:45;;;;;;;8.75;5.10;;;25.90;58.30;;;;;;5060015;28;20055;-64
2023/06/22 08:28:13;;;;;;;9.07;5.30;;;25.90;58.50;;;;;;5059880;28;20024;-64
2023/06/22 08:30:39;;;;;;;8.07;5.15;;;25.90;58.50;;;;;;5077528;28;20102;-63
2023/06/22 08:33:04;;;;;;;7.35;4.93;;;25.80;58.50;;;;;;5074913;28;20373;-64
2023/06/22 08:35:30;;;;;;;8.25;4.72;;;25.80;58.40;;;;;;5077720;28;20103;-63
2023/06/22 08:37:56;;;;;;;9.68;5.22;;;25.90;58.50;;;;;;5059791;28;20044;-64
2023/06/22 08:40:23;;;;;;;8.95;4.97;;;26.00;58.10;;;;;;5059527;28;20334;-64
2023/06/22 08:42:49;;;;;;;9.60;4.55;;;26.20;57.70;;;;;;5075765;28;20029;-63
2023/06/22 08:45:15;;;;;;;7.10;4.40;;;26.40;57.40;;;;;;5077459;28;20043;-64
2023/06/22 08:47:42;;;;;;;10.15;5.18;;;26.50;57.40;;;;;;5076725;28;20059;-64
2023/06/22 08:50:11;;;;;;;9.45;4.95;;;26.50;57.20;;;;;;5077368;28;20439;-64
2023/06/22 08:52:40;;;;;;;8.05;5.25;;;26.60;57.00;;;;;;5076695;28;20024;-64
2023/06/22 08:55:07;;;;;;;9.27;5.38;;;26.50;57.10;;;;;;5053827;28;20033;-64
2023/06/22 08:57:32;;;;;;;7.70;4.55;;;26.50;56.90;;;;;;5076953;28;20032;-64
2023/06/22 08:59:59;;;;;;;8.73;5.18;;;26.50;57.10;;;;;;5076746;28;20043;-64
2023/06/22 09:02:25;;;;;;;8.70;4.57;;;26.40;57.30;;;;;;5059472;28;20448;-64
2023/06/22 09:04:55;;;;;;;8.40;5.43;;;26.40;57.20;;;;;;5057782;28;21938;-64
2023/06/22 09:07:23;;;;;;;8.27;5.20;;;26.40;57.40;;;;;;5076205;28;20036;-64
2023/06/22 09:09:49;;;;;;;9.70;5.68;;;26.50;56.40;;;;;;5077150;28;20074;-63
2023/06/22 09:12:15;;;;;;;7.68;4.43;;;26.50;56.00;;;;;;5042419;28;20037;-64
2023/06/22 09:14:40;;;;;;;8.43;4.88;;;26.50;55.90;;;;;;5057723;28;20025;-64
2023/06/22 09:17:06;;;;;;;8.68;4.70;;;26.70;55.70;;;;;;5067296;28;20036;-64
2023/06/22 09:19:32;;;;;;;8.25;5.03;;;26.90;55.20;;;;;;5076936;28;20021;-64
2023/06/22 09:21:59;;;;;;;9.32;4.40;;;27.20;54.90;;;;;;5059077;28;20099;-64
2023/06/22 09:24:25;;;;;;;7.68;4.47;;;27.30;54.70;;;;;;5075766;28;20036;-64
2023/06/22 09:26:50;;;;;;;7.35;4.25;;;27.30;54.60;;;;;;5075481;28;20033;-64
2023/06/22 09:29:17;;;;;;;7.13;4.03;;;27.20;54.30;;;;;;5076699;28;20108;-64
2023/06/22 09:31:42;;;;;;;9.18;5.22;;;27.20;54.30;;;;;;5076775;28;20052;-64
2023/06/22 09:34:08;;;;;;;7.85;4.50;;;27.10;53.90;;;;;;5044109;28;20017;-64
2023/06/22 09:36:35;;;;;;;9.05;4.35;;;27.10;53.60;;;;;;5075263;28;20024;-64
2023/06/22 09:39:05;;;;;;;6.97;4.20;;;27.10;53.40;;;;;;5058592;28;20025;-64
2023/06/22 09:41:31;;;;;;;8.13;4.28;;;27.00;53.60;;;;;;5076600;28;20447;-64
2023/06/22 09:43:57;;;;;;;6.82;4.22;;;26.90;53.60;;;;;;5076364;28;20075;-64
2023/06/22 09:46:25;;;;;;;6.95;4.35;;;26.90;53.50;;;;;;5056659;28;20109;-64
2023/06/22 09:48:51;;;;;;;8.70;4.07;;;26.80;53.60;;;;;;5058597;28;20041;-64
2023/06/22 09:51:18;;;;;;;6.82;3.63;;;26.80;53.50;;;;;;5076146;28;20025;-64
2023/06/22 09:53:44;;;;;;;7.35;3.70;;;26.70;53.50;;;;;;5058471;28;20050;-64
2023/06/22 09:56:14;;;;;;;7.63;4.03;;;26.70;53.80;;;;;;5074266;28;20115;-64
2023/06/22 09:58:42;;;;;;;7.50;3.90;;;26.60;54.10;;;;;;5058038;28;20106;-64
2023/06/22 10:01:08;;;;;;;7.00;3.67;;;26.50;54.10;;;;;;5058367;28;20034;-64
2023/06/22 10:03:34;;;;;;;7.82;4.07;;;26.50;54.00;;;;;;5058383;28;20028;-64
2023/06/22 10:05:59;;;;;;;10.15;4.35;;;26.40;54.00;;;;;;5074706;28;20094;-64
2023/06/22 10:08:25;;;;;;;7.10;4.32;;;26.40;54.20;;;;;;5057422;28;20436;-64
2023/06/22 10:10:51;;;;;;;6.60;3.85;;;26.30;53.90;;;;;;5076191;28;20093;-64
2023/06/22 10:13:17;;;;;;;6.63;3.47;;;26.20;54.00;;;;;;5057833;28;20020;-64
2023/06/22 10:15:45;;;;;;;7.20;3.92;;;26.20;54.20;;;;;;5057180;28;20032;-64
2023/06/22 10:18:11;;;;;;;6.97;4.07;;;26.20;54.50;;;;;;5074489;28;20056;-64
2023/06/22 10:20:36;;;;;;;7.53;3.70;;;26.10;54.40;;;;;;5075250;28;20394;-64
2023/06/22 10:23:02;;;;;;;7.30;4.18;;;26.00;54.40;;;;;;5075906;28;20032;-64
2023/06/22 10:25:28;;;;;;;7.70;4.47;;;26.00;54.30;;;;;;5040912;28;20028;-64
2023/06/22 10:27:54;;;;;;;7.72;3.65;;;26.00;54.40;;;;;;5073939;28;20032;-64
2023/06/22 10:30:19;;;;;;;6.50;4.07;;;26.00;54.50;;;;;;5075305;28;20081;-64
2023/06/22 10:32:45;;;;;;;9.50;3.92;;;26.00;54.60;;;;;;5040815;28;20024;-65
2023/06/22 10:35:13;;;;;;;7.78;4.20;;;26.00;55.00;;;;;;5075139;28;20107;-64
2023/06/22 10:37:39;;;;;;;7.03;3.47;;;26.00;54.90;;;;;;5073485;28;20037;-65
2023/06/22 10:40:05;;;;;;;8.63;4.93;;;26.00;54.70;;;;;;5069636;28;20029;-64
2023/06/22 10:42:31;;;;;;;7.18;4.25;;;26.00;54.60;;;;;;5055521;28;20059;-63
2023/06/22 10:44:57;;;;;;;7.05;4.13;;;26.00;54.70;;;;;;5057159;28;20082;-64
2023/06/22 10:47:22;;;;;;;7.53;4.72;;;26.00;54.60;;;;;;5073002;28;20107;-64
2023/06/22 10:49:48;;;;;;;6.68;3.97;;;26.00;54.60;;;;;;5074041;28;20358;-64
2023/06/22 10:52:14;;;;;;;7.57;4.05;;;26.00;54.70;;;;;;5073497;28;20024;-64
2023/06/22 10:54:41;;;;;;;8.40;4.25;;;26.00;55.00;;;;;;5074508;28;20394;-63
2023/06/22 10:57:06;;;;;;;8.00;4.07;;;26.00;55.00;;;;;;5074627;28;20357;-63
2023/06/22 10:59:32;;;;;;;6.78;3.72;;;26.00;55.10;;;;;;5073460;28;20013;-63
2023/06/22 11:01:59;;;;;;;7.90;4.47;;;26.00;55.20;;;;;;5074850;28;20021;-63
2023/06/22 11:04:25;;;;;;;6.63;4.32;;;26.00;55.50;;;;;;5056304;28;20436;-63
2023/06/22 11:06:51;;;;;;;7.43;4.07;;;26.00;55.60;;;;;;5074441;28;20028;-63
2023/06/22 11:09:20;;;;;;;6.72;4.20;;;26.00;55.50;;;;;;5072268;28;20339;-63
2023/06/22 11:11:50;;;;;;;7.85;4.47;;;26.00;55.50;;;;;;5056940;28;20020;-63
2023/06/22 11:14:16;;;;;;;10.70;4.65;;;26.00;55.50;;;;;;5056146;28;20016;-63
2023/06/22 11:16:42;;;;;;;7.82;4.28;;;25.90;55.40;;;;;;5056884;28;20020;-63
2023/06/22 11:19:07;;;;;;;8.05;4.40;;;25.90;55.30;;;;;;5073114;28;20389;-63
2023/06/22 11:21:33;;;;;;;7.35;4.80;;;25.90;55.20;;;;;;5073515;28;20112;-63
2023/06/22 11:23:59;;;;;;;8.75;4.30;;;25.90;55.00;;;;;;5069456;28;20032;-63
2023/06/22 11:26:29;;;;;;;8.30;4.78;;;25.80;55.20;;;;;;5073053;28;20020;-63
2023/06/22 11:28:55;;;;;;;8.77;4.88;;;25.80;55.50;;;;;;5069394;28;20067;-63
2023/06/22 11:31:20;;;;;;;7.38;5.18;;;25.80;56.00;;;;;;5070196;28;20029;-63
2023/06/22 11:33:47;;;;;;;7.72;4.90;;;25.70;56.30;;;;;;5055995;28;20033;-63
2023/06/22 11:36:14;;;;;;;8.50;4.95;;;25.70;56.80;;;;;;5071269;28;20032;-63
2023/06/22 11:38:40;;;;;;;8.30;5.75;;;25.60;56.90;;;;;;5048427;28;20119;-63
2023/06/22 11:41:06;;;;;;;7.45;4.72;;;25.60;57.60;;;;;;5033993;28;20120;-63
2023/06/22 11:43:32;;;;;;;9.07;5.82;;;25.50;57.90;;;;;;5048230;28;20041;-63
2023/06/22 11:45:58;;;;;;;9.48;5.65;;;25.40;58.20;;;;;;5033737;28;20119;-63
2023/06/22 11:48:26;;;;;;;8.80;5.75;;;25.30;58.50;;;;;;5060584;28;20041;-63
2023/06/22 11:50:52;;;;;;;7.53;5.32;;;25.30;58.90;;;;;;5061089;28;20036;-63
2023/06/22 11:53:18;;;;;;;8.23;5.57;;;25.20;59.40;;;;;;5060268;28;20409;-63
2023/06/22 11:55:45;;;;;;;9.77;5.55;;;25.10;60.10;;;;;;5049782;28;20027;-64
2023/06/22 11:58:11;;;;;;;9.00;6.28;;;25.10;60.90;;;;;;5060091;28;20089;-64
2023/06/22 12:00:37;;;;;;;8.65;6.30;;;24.90;61.20;;;;;;5041249;28;20100;-65
2023/06/22 12:03:03;;;;;;;9.68;7.00;;;24.90;62.00;;;;;;5060252;28;20450;-64
2023/06/22 12:05:29;;;;;;;11.43;7.43;;;24.90;62.60;;;;;;5057402;28;20025;-63
2023/06/22 12:07:55;;;;;;;11.07;7.38;;;24.80;63.10;;;;;;5054334;28;20472;-63
2023/06/22 12:10:22;;;;;;;10.95;7.10;;;24.70;64.00;;;;;;5040326;28;20373;-64
2023/06/22 12:12:48;;;;;;;10.55;7.20;;;24.60;65.00;;;;;;5050862;28;20400;-65
2023/06/22 12:15:14;;;;;;;12.32;8.43;;;24.50;65.70;;;;;;5040480;28;20059;-65
2023/06/22 12:17:40;;;;;;;10.93;7.05;;;24.50;66.40;;;;;;5056997;28;20044;-64
2023/06/22 12:20:07;;;;;;;11.07;7.57;;;24.40;67.00;;;;;;5039663;28;20450;-66
2023/06/22 12:22:33;;;;;;;11.93;8.32;;;24.40;67.60;;;;;;5058072;28;20032;-65
2023/06/22 12:24:59;;;;;;;11.90;8.82;;;24.30;68.20;;;;;;5039332;28;20421;-65
2023/06/22 12:27:25;;;;;;;11.38;8.30;;;24.20;68.80;;;;;;5043023;28;20068;-65
2023/06/22 12:29:51;;;;;;;12.07;8.60;;;24.20;69.30;;;;;;5072232;28;20052;-65
2023/06/22 12:32:17;;;;;;;12.95;8.75;;;24.10;69.60;;;;;;5063735;28;20024;-64
2023/06/22 12:34:44;;;;;;;11.40;8.35;;;24.10;69.80;;;;;;5066739;28;20090;-64
2023/06/22 12:37:09;;;;;;;12.95;9.15;;;24.00;70.10;;;;;;5050420;28;20335;-64
2023/06/22 12:39:35;;;;;;;13.13;9.50;;;23.90;70.20;;;;;;5057266;28;20058;-64